Time;durP1;ratioP1;P1;durP2;ratioP2;P2;SDS_P1;SDS_P2;PMS_P1;PMS_P2;Temp;Humidity;BMP_temperature;BMP_pressure;BME280_temperature;BME280_humidity;BME280_pressure;Samples;Min_cycle;Max_cycle;Signal;HPM_P1;HPM_P2
2023/08/06 00:01:25;;;;;;;366.85;340.95;;;13.10;83.90;;;;;;6278648;22;20057;-90
2023/08/06 00:03:51;;;;;;;370.25;344.98;;;13.10;83.90;;;;;;6277007;22;20030;-91
2023/08/06 00:06:19;;;;;;;405.15;377.20;;;13.10;84.00;;;;;;6251112;22;20019;-92
2023/08/06 00:08:45;;;;;;;391.35;364.05;;;13.10;84.00;;;;;;6271133;22;20027;-91
2023/08/06 00:11:16;;;;;;;381.52;354.30;;;13.10;84.00;;;;;;6279575;22;20027;-91
2023/08/06 00:13:42;;;;;;;382.67;356.02;;;13.10;84.10;;;;;;6250775;22;20354;-90
2023/08/06 00:16:27;;;;;;;370.63;345.45;;;13.10;84.00;;;;;;6278186;22;20095;-92
2023/08/06 00:18:53;;;;;;;355.77;330.88;;;13.10;84.00;;;;;;6273421;22;20030;-91
2023/08/06 00:21:21;;;;;;;374.73;348.02;;;13.10;84.10;;;;;;6278471;22;20038;-91
2023/08/06 00:23:50;;;;;;;342.80;319.55;;;13.10;84.00;;;;;;6246896;22;20019;-91
2023/08/06 00:26:25;;;;;;;392.98;366.02;;;13.10;84.10;;;;;;6251561;22;20019;-93
2023/08/06 00:28:51;;;;;;;362.52;337.08;;;13.10;84.00;;;;;;6245681;22;20507;-91
2023/08/06 00:31:19;;;;;;;375.42;349.42;;;13.10;84.00;;;;;;6279050;22;20015;-91
2023/08/06 00:33:56;;;;;;;375.10;349.25;;;13.10;83.90;;;;;;6267018;22;20023;-91
2023/08/06 00:36:24;;;;;;;350.02;325.55;;;13.10;83.90;;;;;;6275929;22;20050;-92
2023/08/06 00:38:57;;;;;;;374.40;348.88;;;13.10;84.00;;;;;;6275138;22;20015;-90
2023/08/06 00:41:26;;;;;;;358.58;332.88;;;13.10;84.00;;;;;;6277961;22;20019;-91
2023/08/06 00:44:00;;;;;;;369.50;343.85;;;13.10;84.00;;;;;;6260812;22;20027;-91
2023/08/06 00:46:33;;;;;;;353.65;328.83;;;13.10;84.00;;;;;;6247503;22;20018;-92
2023/08/06 00:49:05;;;;;;;339.53;316.07;;;13.10;83.90;;;;;;6256596;22;20105;-92
2023/08/06 00:51:31;;;;;;;395.15;367.65;;;13.10;83.90;;;;;;6250648;22;20576;-92
2023/08/06 00:54:03;;;;;;;391.83;364.75;;;13.10;83.90;;;;;;6262980;22;20020;-91
2023/08/06 00:56:38;;;;;;;362.08;336.90;;;13.10;84.00;;;;;;6300225;22;20015;-92
2023/08/06 00:59:29;;;;;;;380.08;353.60;;;13.10;84.00;;;;;;6261335;22;20027;-92
2023/08/06 01:02:08;;;;;;;372.02;345.80;;;13.10;84.00;;;;;;6253353;22;20015;-91
2023/08/06 01:04:36;;;;;;;349.80;324.65;;;13.10;83.90;;;;;;6276271;22;20023;-92
2023/08/06 01:07:28;;;;;;;350.58;326.10;;;13.10;83.90;;;;;;6269551;22;20017;-91
2023/08/06 01:10:22;;;;;;;376.73;350.90;;;13.10;83.90;;;;;;6234777;22;20077;-91
2023/08/06 01:12:57;;;;;;;367.35;342.30;;;13.10;83.80;;;;;;6244705;22;20106;-91
2023/08/06 01:15:40;;;;;;;364.05;338.63;;;13.10;83.90;;;;;;6222845;22;20556;-92
2023/08/06 01:18:13;;;;;;;365.00;340.23;;;13.20;83.90;;;;;;6202532;22;20073;-91
2023/08/06 01:20:49;;;;;;;372.50;346.30;;;13.20;83.80;;;;;;6222876;22;20421;-92
2023/08/06 01:23:45;;;;;;;381.73;355.20;;;13.10;83.80;;;;;;6224257;23;20186;-91
2023/08/06 01:26:23;;;;;;;368.50;343.48;;;13.20;83.80;;;;;;6189128;23;20020;-92
2023/08/06 01:29:04;;;;;;;349.17;325.80;;;13.20;83.90;;;;;;6168377;23;20024;-91
2023/08/06 01:31:40;;;;;;;366.17;341.00;;;13.20;84.00;;;;;;6215292;23;20027;-92
2023/08/06 01:34:10;;;;;;;357.65;333.95;;;13.20;83.90;;;;;;6196133;22;20103;-90
2023/08/06 01:36:39;;;;;;;356.40;332.35;;;13.20;83.90;;;;;;6241796;22;20018;-91
2023/08/06 01:39:05;;;;;;;372.38;346.17;;;13.20;83.90;;;;;;6244792;22;20026;-91
2023/08/06 01:41:34;;;;;;;389.27;362.10;;;13.20;83.90;;;;;;6247826;22;20339;-90
2023/08/06 01:44:00;;;;;;;388.50;360.85;;;13.20;83.90;;;;;;6228288;22;20034;-91
2023/08/06 01:46:36;;;;;;;385.10;358.08;;;13.20;83.90;;;;;;6217795;22;20043;-92
2023/08/06 01:49:05;;;;;;;385.35;358.63;;;13.20;83.90;;;;;;6242777;22;20047;-91
2023/08/06 01:51:35;;;;;;;353.27;328.48;;;13.20;83.90;;;;;;6222527;22;20020;-90
2023/08/06 01:54:11;;;;;;;413.30;382.07;;;13.20;83.90;;;;;;6193749;22;20054;-91
2023/08/06 01:56:40;;;;;;;363.40;338.08;;;13.10;83.90;;;;;;6216686;22;20011;-90
2023/08/06 01:59:06;;;;;;;372.08;345.38;;;13.10;84.00;;;;;;6227060;22;20024;-90
2023/08/06 02:01:34;;;;;;;370.70;344.58;;;13.20;84.00;;;;;;6221953;22;20384;-91
2023/08/06 02:04:03;;;;;;;396.73;368.55;;;13.10;83.90;;;;;;6243979;22;20354;-91
2023/08/06 02:06:33;;;;;;;365.67;340.35;;;13.10;83.90;;;;;;6242948;22;20684;-91
2023/08/06 02:09:04;;;;;;;396.90;369.02;;;13.20;83.90;;;;;;6247550;22;20015;-91
2023/08/06 02:11:32;;;;;;;413.63;383.95;;;13.20;83.90;;;;;;6221756;22;20516;-91
2023/08/06 02:14:01;;;;;;;401.00;372.27;;;13.20;84.00;;;;;;6244737;22;20016;-91
2023/08/06 02:16:30;;;;;;;398.15;369.27;;;13.20;84.00;;;;;;6242455;22;20016;-91
2023/08/06 02:19:06;;;;;;;410.63;381.17;;;13.20;84.00;;;;;;6217375;22;20020;-90
2023/08/06 02:21:32;;;;;;;421.05;389.45;;;13.20;84.00;;;;;;6195189;22;20106;-91
2023/08/06 02:23:59;;;;;;;420.52;389.83;;;13.20;84.10;;;;;;6205524;22;20051;-91
2023/08/06 02:26:25;;;;;;;477.73;442.52;;;13.30;84.10;;;;;;6241891;22;20011;-90
2023/08/06 02:29:00;;;;;;;420.85;390.88;;;13.30;84.00;;;;;;6238558;22;20496;-92
2023/08/06 02:31:25;;;;;;;408.42;378.42;;;13.30;84.10;;;;;;6245898;22;20027;-90
2023/08/06 02:33:55;;;;;;;462.05;426.90;;;13.30;84.00;;;;;;6217535;22;20015;-91
2023/08/06 02:36:21;;;;;;;437.25;405.40;;;13.30;84.10;;;;;;6217973;22;20358;-91
2023/08/06 02:38:47;;;;;;;463.20;428.85;;;13.30;84.00;;;;;;6240343;22;20019;-91
2023/08/06 02:41:18;;;;;;;479.70;442.45;;;13.30;84.00;;;;;;6245303;22;20019;-91
2023/08/06 02:44:07;;;;;;;464.77;429.90;;;13.30;84.10;;;;;;6243337;22;20023;-91
2023/08/06 02:46:33;;;;;;;426.48;395.48;;;13.20;84.10;;;;;;6189941;22;20748;-92
2023/08/06 02:49:02;;;;;;;424.98;391.98;;;13.20;84.00;;;;;;6238926;22;20016;-92
2023/08/06 02:51:31;;;;;;;431.95;398.95;;;13.20;84.00;;;;;;6223153;22;20102;-91
2023/08/06 02:54:03;;;;;;;437.75;404.25;;;13.20;84.10;;;;;;6243403;22;20039;-90
2023/08/06 02:56:31;;;;;;;466.13;429.80;;;13.30;84.10;;;;;;6217910;22;20035;-91
2023/08/06 02:59:02;;;;;;;482.08;444.90;;;13.30;84.10;;;;;;6217853;22;20076;-91
2023/08/06 03:01:28;;;;;;;444.95;411.67;;;13.20;84.00;;;;;;6248356;22;20469;-90
2023/08/06 03:03:54;;;;;;;451.42;417.70;;;13.20;84.00;;;;;;6246524;22;20342;-90
2023/08/06 03:06:23;;;;;;;431.52;398.90;;;13.30;84.10;;;;;;6245750;22;20024;-91
2023/08/06 03:08:58;;;;;;;427.83;396.05;;;13.30;84.00;;;;;;6255275;22;20479;-91
2023/08/06 03:11:24;;;;;;;454.67;420.13;;;13.30;84.10;;;;;;6274822;22;20023;-90
2023/08/06 03:13:52;;;;;;;497.35;458.67;;;13.30;84.20;;;;;;6246844;22;20073;-91
2023/08/06 03:16:26;;;;;;;449.60;414.58;;;13.30;84.10;;;;;;6271823;22;20019;-92
2023/08/06 03:18:52;;;;;;;472.15;435.20;;;13.30;84.00;;;;;;6268391;22;20027;-91
2023/08/06 03:21:25;;;;;;;422.77;390.17;;;13.30;84.20;;;;;;6274552;22;20099;-91
2023/08/06 03:24:01;;;;;;;478.65;441.77;;;13.30;84.20;;;;;;6271137;22;20103;-91
2023/08/06 03:26:27;;;;;;;430.15;397.30;;;13.30;84.10;;;;;;6270248;22;20016;-91
2023/08/06 03:28:55;;;;;;;479.05;442.08;;;13.30;84.20;;;;;;6293852;22;20057;-90
2023/08/06 03:31:24;;;;;;;453.02;417.67;;;13.30;84.10;;;;;;6274108;22;20058;-91
2023/08/06 03:33:53;;;;;;;483.10;445.10;;;13.30;84.20;;;;;;6271794;22;20028;-91
2023/08/06 03:36:21;;;;;;;437.58;403.90;;;13.30;84.10;;;;;;6246156;22;20012;-91
2023/08/06 03:38:50;;;;;;;;;;;13.30;84.10;;;;;;6270945;22;20024;-90
2023/08/06 03:41:18;;;;;;;389.10;362.67;;;13.20;84.00;;;;;;6273464;22;19976;-92
2023/08/06 03:43:44;;;;;;;400.40;371.25;;;13.20;84.10;;;;;;6241373;22;20050;-91
2023/08/06 03:46:15;;;;;;;383.17;354.38;;;13.30;84.00;;;;;;6268652;22;20019;-91
2023/08/06 03:48:44;;;;;;;434.52;402.25;;;13.30;84.10;;;;;;6227443;22;20086;-91
2023/08/06 03:51:18;;;;;;;424.67;390.85;;;13.30;84.10;;;;;;6273527;22;20019;-91
2023/08/06 03:54:07;;;;;;;446.92;412.27;;;13.30;84.20;;;;;;6246688;22;20027;-91
2023/08/06 03:56:33;;;;;;;448.25;412.65;;;13.30;84.20;;;;;;6268444;22;20098;-93
2023/08/06 03:59:04;;;;;;;438.65;405.85;;;13.30;84.10;;;;;;6269854;22;20074;-91
2023/08/06 04:01:35;;;;;;;490.52;452.02;;;13.30;84.10;;;;;;6273696;22;20043;-91
2023/08/06 04:04:06;;;;;;;432.13;400.10;;;13.30;84.10;;;;;;6225682;22;20027;-91
2023/08/06 04:06:32;;;;;;;429.17;396.90;;;13.30;84.10;;;;;;6216572;22;20787;-91
2023/08/06 04:09:01;;;;;;;483.92;446.25;;;13.30;84.10;;;;;;6241372;22;20054;-91
2023/08/06 04:11:30;;;;;;;473.42;436.55;;;13.30;84.20;;;;;;6222810;22;20081;-91
2023/08/06 04:13:58;;;;;;;449.10;415.92;;;13.30;84.10;;;;;;6208580;22;20022;-91
2023/08/06 04:16:33;;;;;;;463.23;426.23;;;13.30;84.00;;;;;;6217490;22;20101;-92
2023/08/06 04:19:01;;;;;;;507.75;466.85;;;13.30;84.10;;;;;;6223469;22;20030;-91
2023/08/06 04:21:32;;;;;;;512.83;471.35;;;13.30;84.10;;;;;;6220211;22;20100;-91
2023/08/06 04:24:10;;;;;;;445.33;410.80;;;13.30;84.10;;;;;;6243104;22;20020;-91
2023/08/06 04:26:37;;;;;;;454.15;418.90;;;13.30;84.10;;;;;;6191847;22;20019;-92
2023/08/06 04:29:05;;;;;;;446.05;411.85;;;13.30;84.10;;;;;;6229764;22;20026;-91
2023/08/06 04:31:31;;;;;;;484.17;444.75;;;13.30;84.10;;;;;;6219525;22;20027;-91
2023/08/06 04:33:57;;;;;;;509.98;470.65;;;13.40;84.00;;;;;;6248423;22;20035;-90
2023/08/06 04:36:26;;;;;;;529.75;486.92;;;13.40;84.10;;;;;;6218142;22;20045;-92
2023/08/06 04:38:55;;;;;;;526.75;486.35;;;13.40;84.00;;;;;;6244753;22;20099;-92
2023/08/06 04:41:21;;;;;;;479.13;441.55;;;13.40;84.10;;;;;;6223274;22;20334;-92
2023/08/06 04:44:12;;;;;;;551.50;506.85;;;13.40;84.10;;;;;;6207972;22;20162;-92
2023/08/06 04:46:38;;;;;;;464.42;428.15;;;13.50;84.10;;;;;;6220458;22;20011;-91
2023/08/06 04:49:06;;;;;;;458.48;421.92;;;13.40;84.10;;;;;;6244240;22;20516;-91
2023/08/06 04:51:37;;;;;;;470.38;433.48;;;13.50;84.10;;;;;;6247851;22;20030;-92
2023/08/06 04:54:19;;;;;;;521.30;480.67;;;13.50;84.10;;;;;;6161729;22;20026;-91
2023/08/06 04:56:48;;;;;;;499.60;459.60;;;13.50;84.10;;;;;;6241817;22;20298;-92
2023/08/06 04:59:19;;;;;;;458.77;422.63;;;13.50;84.00;;;;;;6244387;22;20027;-92
2023/08/06 05:01:45;;;;;;;496.33;458.77;;;13.50;84.10;;;;;;6247924;22;20023;-91
2023/08/06 05:04:16;;;;;;;472.95;435.35;;;13.50;84.10;;;;;;6255501;22;20019;-92
2023/08/06 05:06:51;;;;;;;498.13;458.63;;;13.50;84.10;;;;;;6217166;22;20019;-92
2023/08/06 05:09:42;;;;;;;475.92;439.45;;;13.50;84.20;;;;;;6253269;22;20026;-91
2023/08/06 05:12:23;;;;;;;469.33;432.10;;;13.50;84.20;;;;;;6245594;22;20051;-92
2023/08/06 05:14:55;;;;;;;483.90;445.25;;;13.60;84.30;;;;;;6247847;22;20105;-91
2023/08/06 05:17:24;;;;;;;523.28;481.08;;;13.60;84.20;;;;;;6224439;22;20046;-92
2023/08/06 05:20:00;;;;;;;515.65;474.95;;;13.70;84.30;;;;;;6241907;22;20016;-92
2023/08/06 05:22:28;;;;;;;554.90;510.58;;;13.70;84.30;;;;;;6175203;22;20714;-92
2023/08/06 05:24:59;;;;;;;550.08;505.05;;;13.80;84.30;;;;;;6238951;22;20442;-91
2023/08/06 05:27:25;;;;;;;499.75;459.15;;;13.90;84.30;;;;;;6199365;22;20522;-91
2023/08/06 05:30:04;;;;;;;561.95;516.15;;;13.90;84.50;;;;;;6247489;22;20038;-92
2023/08/06 05:32:30;;;;;;;532.35;488.50;;;14.00;84.30;;;;;;6245370;22;20057;-92
2023/08/06 05:35:06;;;;;;;568.70;520.17;;;14.00;84.20;;;;;;6247087;22;20015;-92
2023/08/06 05:37:32;;;;;;;552.55;507.17;;;14.00;84.10;;;;;;6239582;22;20031;-92
2023/08/06 05:40:01;;;;;;;595.88;546.67;;;14.10;84.00;;;;;;6247197;22;20012;-91
2023/08/06 05:42:27;;;;;;;564.85;519.08;;;14.00;84.00;;;;;;6233122;22;20012;-92
2023/08/06 05:44:53;;;;;;;597.63;547.30;;;14.10;84.00;;;;;;6242493;22;20049;-91
2023/08/06 05:47:19;;;;;;;586.40;539.33;;;14.10;83.90;;;;;;6237227;22;20020;-92
2023/08/06 05:49:45;;;;;;;557.30;510.10;;;14.10;83.90;;;;;;6197017;22;20090;-91
2023/08/06 05:52:11;;;;;;;594.45;546.03;;;14.10;83.90;;;;;;6230538;22;20055;-92
2023/08/06 05:54:40;;;;;;;607.22;557.45;;;14.10;83.80;;;;;;6246121;22;20446;-91
2023/08/06 05:57:08;;;;;;;596.13;546.75;;;14.10;83.70;;;;;;6187407;22;20505;-92
2023/08/06 05:59:37;;;;;;;572.75;524.67;;;14.10;83.60;;;;;;6246857;22;20023;-91
2023/08/06 06:02:22;;;;;;;;;;;;;;;;;;;;;
2023/08/06 06:04:53;;;;;;;561.88;513.05;;;14.00;83.60;;;;;;6247634;22;20018;-92
2023/08/06 06:07:21;;;;;;;551.15;504.48;;;14.00;83.70;;;;;;6187689;22;20020;-91
2023/08/06 06:09:50;;;;;;;618.88;566.22;;;14.00;83.60;;;;;;6277836;22;20041;-92
2023/08/06 06:12:22;;;;;;;574.60;527.03;;;14.10;83.60;;;;;;6231138;22;20022;-92
2023/08/06 06:14:48;;;;;;;581.60;531.25;;;14.10;83.60;;;;;;6231023;22;20019;-92
2023/08/06 06:17:18;;;;;;;592.00;544.55;;;14.00;83.60;;;;;;6248431;22;20026;-93
2023/08/06 06:20:05;;;;;;;570.08;522.90;;;14.10;83.70;;;;;;6284227;22;20015;-94
2023/08/06 06:22:33;;;;;;;557.60;511.98;;;14.10;83.60;;;;;;6276376;22;20072;-89
2023/08/06 06:24:59;;;;;;;611.40;560.20;;;14.10;83.70;;;;;;6277327;22;20376;-90
2023/08/06 06:27:25;;;;;;;544.83;499.98;;;14.10;83.60;;;;;;6265904;22;20457;-89
2023/08/06 06:29:52;;;;;;;608.72;556.25;;;14.20;83.60;;;;;;6302877;22;20019;-90
2023/08/06 06:32:18;;;;;;;563.13;517.58;;;14.20;83.50;;;;;;6276853;22;20399;-89
2023/08/06 06:34:43;;;;;;;598.10;548.25;;;14.20;83.50;;;;;;6280002;22;20015;-89
2023/08/06 06:37:10;;;;;;;589.85;540.80;;;14.20;83.40;;;;;;6272901;22;20038;-90
2023/08/06 06:39:38;;;;;;;637.38;581.15;;;14.30;83.30;;;;;;6252823;22;20011;-89
2023/08/06 06:42:05;;;;;;;596.75;549.08;;;14.30;83.40;;;;;;6276407;22;20019;-89
2023/08/06 06:44:31;;;;;;;579.20;531.70;;;14.40;83.30;;;;;;6305200;22;20015;-90
2023/08/06 06:46:57;;;;;;;613.13;563.08;;;14.40;83.30;;;;;;6271067;22;20111;-90
2023/08/06 06:49:23;;;;;;;596.42;545.63;;;14.40;83.30;;;;;;6276057;22;20117;-89
2023/08/06 06:51:49;;;;;;;570.58;523.42;;;14.40;83.20;;;;;;6305501;22;20015;-90
2023/08/06 06:54:14;;;;;;;631.50;575.85;;;14.40;83.10;;;;;;6276552;22;20023;-90
2023/08/06 06:56:42;;;;;;;616.15;564.95;;;14.50;83.20;;;;;;6247425;22;20022;-90
2023/08/06 06:59:07;;;;;;;660.00;600.58;;;14.50;83.20;;;;;;6275508;22;20338;-90
2023/08/06 07:01:35;;;;;;;638.13;585.47;;;14.60;83.10;;;;;;6278700;22;20026;-91
2023/08/06 07:04:04;;;;;;;675.38;613.08;;;14.60;83.20;;;;;;6251605;22;20027;-90
2023/08/06 07:06:31;;;;;;;632.97;575.75;;;14.70;83.20;;;;;;6300975;22;20076;-92
2023/08/06 07:08:57;;;;;;;675.35;616.47;;;14.80;83.20;;;;;;6273788;22;20023;-91
2023/08/06 07:11:22;;;;;;;666.30;608.25;;;14.90;83.20;;;;;;6278064;22;20440;-91
2023/08/06 07:13:55;;;;;;;719.72;649.15;;;15.00;83.20;;;;;;6250445;22;20523;-91
2023/08/06 07:16:24;;;;;;;698.83;637.47;;;15.00;83.20;;;;;;6302514;22;20054;-92
2023/08/06 07:18:52;;;;;;;653.60;598.97;;;15.20;83.10;;;;;;6272701;22;20076;-91
2023/08/06 07:21:18;;;;;;;700.58;640.17;;;15.20;83.00;;;;;;6278742;22;20061;-91
2023/08/06 07:23:45;;;;;;;730.67;663.35;;;15.30;83.00;;;;;;6274899;22;20023;-90
2023/08/06 07:26:16;;;;;;;730.60;664.33;;;15.40;82.80;;;;;;6251931;22;20053;-91
2023/08/06 07:28:45;;;;;;;715.30;649.25;;;15.50;82.90;;;;;;6270976;22;20015;-90
2023/08/06 07:31:13;;;;;;;760.45;687.20;;;15.60;82.90;;;;;;6304795;22;20077;-92
2023/08/06 07:33:42;;;;;;;723.20;656.00;;;15.80;82.90;;;;;;6262234;22;20023;-91
2023/08/06 07:36:13;;;;;;;727.53;659.92;;;15.90;82.90;;;;;;6278035;22;20453;-91
2023/08/06 07:38:39;;;;;;;729.67;662.57;;;16.00;82.90;;;;;;6272695;22;20401;-91
2023/08/06 07:41:07;;;;;;;807.88;729.80;;;16.20;82.40;;;;;;6277544;22;20281;-90
2023/08/06 07:43:33;;;;;;;747.25;681.58;;;16.40;82.20;;;;;;6273852;22;20023;-90
2023/08/06 07:46:00;;;;;;;725.83;662.90;;;16.50;81.50;;;;;;6247647;22;20124;-90
2023/08/06 07:48:27;;;;;;;742.60;679.40;;;16.60;81.40;;;;;;6239840;22;20050;-90
2023/08/06 07:50:56;;;;;;;749.63;685.85;;;16.80;81.20;;;;;;6275386;22;20105;-90
2023/08/06 07:53:23;;;;;;;725.72;665.67;;;16.90;81.30;;;;;;6272497;22;20034;-90
2023/08/06 07:55:55;;;;;;;753.20;687.67;;;17.00;80.70;;;;;;6274899;22;20025;-90
2023/08/06 07:58:21;;;;;;;757.20;689.08;;;17.10;80.60;;;;;;6265425;22;20031;-90
2023/08/06 08:00:47;;;;;;;740.55;678.53;;;17.20;80.20;;;;;;6274437;22;20021;-90
2023/08/06 08:03:15;;;;;;;743.90;681.47;;;17.30;79.90;;;;;;6271818;22;20477;-90
2023/08/06 08:05:42;;;;;;;739.67;676.00;;;17.30;79.90;;;;;;6275248;22;20030;-90
2023/08/06 08:08:08;;;;;;;752.00;689.13;;;17.40;79.90;;;;;;6264703;22;20027;-91
2023/08/06 08:10:34;;;;;;;739.65;678.00;;;17.50;79.40;;;;;;6249050;22;20427;-91
2023/08/06 08:13:04;;;;;;;743.33;680.08;;;17.40;79.30;;;;;;6246980;22;20031;-90
2023/08/06 08:15:31;;;;;;;755.28;691.83;;;17.40;79.40;;;;;;6272701;22;20019;-90
2023/08/06 08:17:57;;;;;;;740.92;680.17;;;17.50;79.20;;;;;;6266835;22;20023;-90
2023/08/06 08:20:31;;;;;;;724.90;665.35;;;17.50;79.10;;;;;;6249551;22;20461;-90
2023/08/06 08:22:58;;;;;;;741.45;678.45;;;17.50;78.90;;;;;;6272573;22;20045;-91
2023/08/06 08:25:23;;;;;;;694.70;637.13;;;17.50;78.50;;;;;;6274162;22;20019;-92
2023/08/06 08:27:49;;;;;;;763.97;700.17;;;17.60;78.50;;;;;;6264048;22;20479;-91
2023/08/06 08:30:18;;;;;;;776.70;712.05;;;17.60;78.30;;;;;;6274227;22;20023;-91
2023/08/06 08:32:44;;;;;;;738.55;677.22;;;17.60;78.30;;;;;;6272152;22;20350;-91
2023/08/06 08:35:12;;;;;;;751.17;688.53;;;17.80;78.20;;;;;;6299345;22;20023;-91
2023/08/06 08:37:39;;;;;;;725.35;664.78;;;17.80;78.20;;;;;;6266669;22;20023;-91
2023/08/06 08:40:06;;;;;;;700.00;644.80;;;17.80;78.00;;;;;;6272644;22;20026;-91
2023/08/06 08:42:32;;;;;;;746.65;684.42;;;17.80;77.60;;;;;;6298926;22;20038;-92
2023/08/06 08:44:58;;;;;;;757.17;689.70;;;17.80;77.60;;;;;;6248847;22;20473;-92
2023/08/06 08:47:30;;;;;;;731.83;670.20;;;17.90;77.60;;;;;;6274048;22;20145;-90
2023/08/06 08:49:57;;;;;;;763.35;699.60;;;18.00;77.20;;;;;;6274523;22;20019;-91
2023/08/06 08:52:25;;;;;;;771.63;707.28;;;18.00;76.90;;;;;;6246405;22;20066;-91
2023/08/06 08:54:52;;;;;;;772.05;705.97;;;18.00;76.60;;;;;;6274037;22;20027;-91
2023/08/06 08:57:20;;;;;;;733.80;672.58;;;18.00;76.50;;;;;;6264507;22;20101;-91
2023/08/06 08:59:46;;;;;;;741.58;679.72;;;18.00;76.30;;;;;;6275070;22;20234;-91
2023/08/06 09:02:15;;;;;;;744.40;681.67;;;18.00;75.80;;;;;;6246057;22;20045;-91
2023/08/06 09:04:42;;;;;;;728.90;668.42;;;18.00;76.00;;;;;;6274466;22;20106;-90
2023/08/06 09:07:11;;;;;;;758.38;695.20;;;18.10;75.90;;;;;;6251609;22;20011;-91
2023/08/06 09:09:39;;;;;;;751.85;691.33;;;18.20;75.70;;;;;;6248299;22;20429;-91
2023/08/06 09:12:15;;;;;;;790.45;725.03;;;18.20;75.20;;;;;;6245880;22;20054;-92
2023/08/06 09:14:42;;;;;;;776.10;710.97;;;18.20;74.70;;;;;;6273153;22;20023;-90
2023/08/06 09:17:10;;;;;;;762.72;700.15;;;18.20;75.30;;;;;;6239572;22;20076;-91
2023/08/06 09:19:37;;;;;;;743.22;682.33;;;18.30;75.40;;;;;;6273407;22;20073;-92
2023/08/06 09:22:03;;;;;;;763.67;700.65;;;18.40;74.70;;;;;;6271763;22;20018;-90
2023/08/06 09:24:29;;;;;;;741.22;680.28;;;18.40;74.00;;;;;;6273986;22;20023;-92
2023/08/06 09:26:55;;;;;;;764.95;701.30;;;18.40;74.20;;;;;;6266089;22;20011;-90
2023/08/06 09:29:21;;;;;;;774.30;709.63;;;18.50;74.00;;;;;;6297534;22;20019;-92
2023/08/06 09:31:58;;;;;;;764.90;700.47;;;18.50;73.70;;;;;;6248199;22;20019;-95
2023/08/06 09:45:32;;;;;;;676.17;618.03;;;18.70;72.20;;;;;;6079728;23;20029;-93
2023/08/06 09:48:24;;;;;;;755.28;692.97;;;18.80;71.70;;;;;;6185823;22;20027;-93
2023/08/06 09:51:15;;;;;;;762.50;700.30;;;18.80;72.20;;;;;;6271432;22;20043;-96
2023/08/06 09:54:38;;;;;;;737.15;675.28;;;18.90;71.90;;;;;;6305944;22;20022;-95
2023/08/06 09:57:49;;;;;;;731.40;671.50;;;18.90;71.50;;;;;;6229211;22;20015;-96
2023/08/06 10:00:19;;;;;;;810.67;735.58;;;19.00;72.30;;;;;;6245887;22;20075;-95
2023/08/06 10:02:46;;;;;;;746.13;686.92;;;19.10;71.10;;;;;;6277753;22;20476;-92
2023/08/06 10:05:24;;;;;;;706.80;649.13;;;19.10;71.00;;;;;;6278925;22;20019;-96
2023/08/06 10:08:19;;;;;;;747.67;684.55;;;19.20;71.20;;;;;;6249148;22;20415;-92
2023/08/06 10:10:46;;;;;;;744.53;683.63;;;19.30;70.40;;;;;;6209605;22;20063;-92
2023/08/06 10:13:24;;;;;;;751.60;692.08;;;19.30;71.50;;;;;;6207064;22;20024;-91
2023/08/06 10:16:01;;;;;;;;;;;;;;;;;;;;;
2023/08/06 10:18:38;;;;;;;784.13;719.65;;;19.50;71.50;;;;;;6253873;22;20019;-90
2023/08/06 10:21:30;;;;;;;745.63;685.80;;;19.50;71.50;;;;;;6247014;22;20111;-94
2023/08/06 10:23:59;;;;;;;763.05;700.60;;;19.50;71.20;;;;;;6244658;22;20026;-93
2023/08/06 10:26:56;;;;;;;782.83;719.20;;;19.50;70.70;;;;;;6219482;22;20047;-95
2023/08/06 10:29:38;;;;;;;696.55;636.47;;;19.50;70.50;;;;;;6212568;22;20516;-90
2023/08/06 10:32:09;;;;;;;733.58;670.42;;;19.50;68.70;;;;;;6237473;22;20015;-93
2023/08/06 10:34:55;;;;;;;727.28;668.05;;;19.50;70.10;;;;;;6248229;22;20024;-88
2023/08/06 10:37:23;;;;;;;745.80;682.33;;;19.60;69.00;;;;;;6258943;22;20518;-89
2023/08/06 10:39:52;;;;;;;720.13;661.17;;;19.60;69.40;;;;;;6241509;22;20023;-88
2023/08/06 10:42:28;;;;;;;729.08;671.25;;;19.50;69.10;;;;;;6240086;22;20016;-88
2023/08/06 10:45:17;;;;;;;773.55;706.40;;;19.60;68.50;;;;;;6242003;22;20012;-87
2023/08/06 10:47:43;;;;;;;711.50;653.55;;;19.70;69.20;;;;;;6232689;22;20050;-88
2023/08/06 10:50:13;;;;;;;764.17;700.80;;;19.70;69.30;;;;;;6241494;22;20020;-87
2023/08/06 10:52:40;;;;;;;789.25;721.63;;;19.80;69.00;;;;;;6239931;22;20023;-86
2023/08/06 10:55:06;;;;;;;779.03;714.20;;;19.80;69.10;;;;;;6267296;22;20438;-87
2023/08/06 10:57:32;;;;;;;765.63;702.13;;;19.90;69.30;;;;;;6232684;22;20055;-89
2023/08/06 10:59:58;;;;;;;780.00;715.50;;;20.00;69.10;;;;;;6218504;22;20575;-87
2023/08/06 11:02:23;;;;;;;781.08;716.20;;;20.00;68.40;;;;;;6240648;22;20012;-88
2023/08/06 11:04:49;;;;;;;779.45;714.20;;;20.00;68.40;;;;;;6216471;22;20027;-90
2023/08/06 11:07:17;;;;;;;796.22;728.90;;;20.00;68.40;;;;;;6209185;22;20105;-90
2023/08/06 11:09:47;;;;;;;756.15;692.67;;;20.00;68.50;;;;;;6257415;22;20034;-94
2023/08/06 11:12:21;;;;;;;727.95;667.30;;;20.00;68.20;;;;;;6240846;22;20107;-90
2023/08/06 11:14:50;;;;;;;774.05;708.85;;;20.00;67.60;;;;;;6242771;22;20019;-88
2023/08/06 11:17:16;;;;;;;777.00;711.78;;;20.00;67.80;;;;;;6208975;22;20342;-86
2023/08/06 11:19:43;;;;;;;744.15;677.17;;;20.00;68.20;;;;;;6243515;22;20077;-89
2023/08/06 11:22:09;;;;;;;742.75;677.33;;;20.00;68.20;;;;;;6242892;22;20423;-88
2023/08/06 11:24:35;;;;;;;704.10;640.40;;;20.00;67.70;;;;;;6244236;22;20073;-89
2023/08/06 11:27:01;;;;;;;769.53;703.78;;;20.00;66.90;;;;;;6210809;22;20047;-87
2023/08/06 11:29:27;;;;;;;807.00;736.08;;;20.00;67.10;;;;;;6217678;22;20020;-87
2023/08/06 11:31:52;;;;;;;719.83;656.90;;;20.00;67.50;;;;;;6269607;22;20095;-89
2023/08/06 11:34:18;;;;;;;701.45;642.17;;;20.00;67.50;;;;;;6242495;22;20474;-89
2023/08/06 11:36:44;;;;;;;710.30;652.75;;;20.00;67.10;;;;;;6215277;22;20098;-88
2023/08/06 11:39:10;;;;;;;758.55;687.28;;;19.90;66.80;;;;;;6272192;22;20461;-88
2023/08/06 11:41:37;;;;;;;776.35;709.83;;;19.90;67.10;;;;;;6247852;22;20574;-87
2023/08/06 11:44:03;;;;;;;792.72;724.28;;;19.90;67.70;;;;;;6219878;22;20074;-86
2023/08/06 11:46:49;;;;;;;768.33;702.33;;;19.90;67.80;;;;;;6217510;22;20020;-88
2023/08/06 11:49:14;;;;;;;802.83;731.50;;;19.90;67.80;;;;;;6271803;22;20100;-86
2023/08/06 11:52:12;;;;;;;778.60;707.78;;;19.90;68.10;;;;;;6222104;22;20387;-92
2023/08/06 11:54:38;;;;;;;771.85;705.22;;;20.00;67.70;;;;;;6242413;22;20020;-88
2023/08/06 11:57:07;;;;;;;775.55;703.70;;;20.00;68.20;;;;;;6238471;22;20012;-91
2023/08/06 11:59:33;;;;;;;877.72;796.20;;;19.90;68.20;;;;;;6247870;22;20023;-86
2023/08/06 12:02:05;;;;;;;926.67;831.45;;;19.90;68.30;;;;;;6222726;22;20091;-87
2023/08/06 12:04:32;;;;;;;780.70;714.25;;;19.70;67.90;;;;;;6271093;22;20406;-88
2023/08/06 12:07:07;;;;;;;759.53;694.60;;;19.70;68.20;;;;;;6240318;22;20337;-88
2023/08/06 12:09:33;;;;;;;764.67;699.05;;;19.70;67.90;;;;;;6288704;22;20023;-89
2023/08/06 12:12:04;;;;;;;749.50;685.50;;;19.70;68.30;;;;;;6278549;22;20164;-90
2023/08/06 12:14:30;;;;;;;700.58;639.15;;;19.70;68.20;;;;;;6277072;22;20023;-89
2023/08/06 12:16:58;;;;;;;707.40;644.47;;;19.70;68.20;;;;;;6270145;22;20012;-90
2023/08/06 12:19:24;;;;;;;662.55;603.88;;;19.60;67.70;;;;;;6261453;22;20072;-91
2023/08/06 12:21:50;;;;;;;706.05;640.63;;;19.50;67.40;;;;;;6252083;22;20027;-90
2023/08/06 12:24:16;;;;;;;762.45;699.80;;;19.40;67.40;;;;;;6236181;22;20090;-88
2023/08/06 12:26:41;;;;;;;751.13;688.40;;;19.40;67.70;;;;;;6271526;22;20059;-86
2023/08/06 12:29:07;;;;;;;683.20;621.17;;;19.40;68.00;;;;;;6275014;22;20106;-88
2023/08/06 12:31:35;;;;;;;724.10;662.08;;;19.50;68.00;;;;;;6278519;22;20015;-90
2023/08/06 12:34:01;;;;;;;748.53;681.50;;;19.50;68.20;;;;;;6224124;22;20023;-87
2023/08/06 12:36:27;;;;;;;732.60;671.25;;;19.50;68.00;;;;;;6247525;22;20015;-91
2023/08/06 12:38:53;;;;;;;749.33;687.00;;;19.50;67.80;;;;;;6248187;22;20398;-91